Time;durP1;ratioP1;P1;durP2;ratioP2;P2;SDS_P1;SDS_P2;PMS_P1;PMS_P2;Temp;Humidity;BMP_temperature;BMP_pressure;BME280_temperature;BME280_humidity;BME280_pressure;Samples;Min_cycle;Max_cycle;Signal;HPM_P1;HPM_P2
2022/07/16 00:02:38;;;;;;;;;3.25;3.00;;;;;25.10;23.75;101688.91;5040404;28;45218;-66
2022/07/16 00:05:05;;;;;;;;;5.50;5.00;;;;;25.06;23.98;101687.34;5040835;28;45237;-66
2022/07/16 00:07:30;;;;;;;;;7.00;4.00;;;;;25.01;24.20;101686.78;5040855;28;45237;-63
2022/07/16 00:09:56;;;;;;;;;5.75;3.75;;;;;24.99;24.02;101690.41;5044374;28;45379;-63
2022/07/16 00:12:21;;;;;;;;;4.00;4.00;;;;;24.95;24.08;101688.84;5060583;28;45269;-65
2022/07/16 00:14:47;;;;;;;;;4.25;3.50;;;;;24.91;24.16;101686.47;5061005;28;45343;-66
2022/07/16 00:17:12;;;;;;;;;4.75;4.75;;;;;24.87;24.47;101696.53;5060979;28;45296;-66
2022/07/16 00:19:37;;;;;;;;;5.00;5.00;;;;;24.85;24.34;101700.25;5042765;28;45708;-66
2022/07/16 00:22:02;;;;;;;;;0.00;0.00;;;;;24.80;24.30;101700.53;5050828;28;45317;-66
2022/07/16 00:24:28;;;;;;;;;3.00;3.00;;;;;24.76;24.45;101704.38;5040600;28;45403;-66
2022/07/16 00:26:54;;;;;;;;;4.00;4.00;;;;;24.71;24.51;101699.25;5041014;28;45375;-66
2022/07/16 00:29:20;;;;;;;;;4.25;3.00;;;;;24.67;24.61;101693.19;5040615;28;45342;-67
2022/07/16 00:31:47;;;;;;;;;3.25;3.25;;;;;24.63;24.49;101696.13;5040538;28;46242;-67
2022/07/16 00:34:12;;;;;;;;;3.50;3.50;;;;;24.58;25.11;101692.81;5040355;28;45433;-67
2022/07/16 00:36:39;;;;;;;;;0.50;0.25;;;;;24.54;24.36;101691.28;5040496;28;45417;-67
2022/07/16 00:39:07;;;;;;;;;3.00;3.00;;;;;24.49;24.78;101691.56;5040545;28;45254;-66
2022/07/16 00:41:34;;;;;;;;;3.00;3.00;;;;;24.46;24.62;101691.72;5040182;28;45539;-67
2022/07/16 00:44:05;;;;;;;;;3.50;2.75;;;;;24.42;24.76;101692.88;5040242;28;45339;-67
2022/07/16 00:46:31;;;;;;;;;4.25;4.00;;;;;24.39;24.86;101701.97;5040483;28;45372;-66
2022/07/16 00:48:57;;;;;;;;;4.75;4.75;;;;;24.35;24.94;101689.66;5040228;28;45474;-67
2022/07/16 00:51:25;;;;;;;;;5.25;4.25;;;;;24.32;24.95;101697.91;5040169;28;45936;-66
2022/07/16 00:53:51;;;;;;;;;3.00;3.00;;;;;24.27;25.17;101690.09;5040204;28;45274;-65
2022/07/16 00:56:16;;;;;;;;;2.00;2.00;;;;;24.23;24.90;101690.38;5040617;28;45416;-65
2022/07/16 00:58:44;;;;;;;;;5.00;5.00;;;;;24.21;25.20;101695.81;5039865;28;45467;-65
2022/07/16 01:01:11;;;;;;;;;2.50;2.50;;;;;24.17;25.22;101699.63;5040023;28;46776;-66
2022/07/16 01:03:38;;;;;;;;;7.25;5.25;;;;;24.14;25.35;101697.13;5039970;28;45352;-65
2022/07/16 01:06:05;;;;;;;;;4.75;3.50;;;;;24.11;25.44;101694.59;5040051;28;45340;-63
2022/07/16 01:08:33;;;;;;;;;5.00;5.00;;;;;24.04;25.42;101690.53;5039826;28;45272;-63
2022/07/16 01:10:59;;;;;;;;;2.50;2.00;;;;;24.00;25.25;101685.34;5052153;28;47971;-63
2022/07/16 01:13:26;;;;;;;;;7.00;4.00;;;;;23.99;25.68;101686.28;5041871;28;45257;-63
2022/07/16 01:15:52;;;;;;;;;3.75;3.75;;;;;23.88;25.75;101687.84;5060033;28;45334;-63
2022/07/16 01:18:17;;;;;;;;;5.75;5.00;;;;;23.92;25.55;101701.00;5059850;28;45416;-63
2022/07/16 01:20:43;;;;;;;;;5.75;4.00;;;;;23.90;25.74;101699.31;5059837;28;45375;-63
2022/07/16 01:23:09;;;;;;;;;3.50;3.50;;;;;23.86;25.85;101693.25;5040904;28;45380;-63
2022/07/16 01:25:35;;;;;;;;;5.00;4.00;;;;;23.83;25.83;101698.81;5039728;28;45245;-66
2022/07/16 01:28:00;;;;;;;;;3.75;3.75;;;;;23.79;25.88;101700.78;5055470;28;45417;-66
2022/07/16 01:30:25;;;;;;;;;4.00;3.25;;;;;23.76;26.03;101698.28;5048342;28;46471;-66
2022/07/16 01:32:51;;;;;;;;;4.00;3.00;;;;;23.74;25.96;101697.50;5039707;28;45273;-66
2022/07/16 01:35:18;;;;;;;;;4.25;4.00;;;;;23.68;25.74;101689.78;5039949;28;45286;-64
2022/07/16 01:37:43;;;;;;;;;5.25;5.00;;;;;23.67;26.06;101693.41;5039422;28;45528;-63
2022/07/16 01:40:08;;;;;;;;;3.75;3.50;;;;;23.62;26.05;101696.38;5039636;28;46127;-63
2022/07/16 01:42:34;;;;;;;;;3.50;3.50;;;;;23.61;26.05;101696.41;5039565;28;45255;-63
2022/07/16 01:45:00;;;;;;;;;6.00;5.00;;;;;23.58;26.22;101699.28;5040029;28;45223;-63
2022/07/16 01:47:26;;;;;;;;;5.75;5.00;;;;;23.52;26.37;101692.41;5039420;28;45250;-60
2022/07/16 01:49:51;;;;;;;;;5.50;5.50;;;;;23.52;26.55;101692.41;5039499;28;45335;-61
2022/07/16 01:52:21;;;;;;;;;7.00;6.25;;;;;23.48;26.67;101691.75;5039330;28;45443;-63
2022/07/16 01:54:52;;;;;;;;;4.75;4.75;;;;;23.46;26.36;101693.63;5039882;28;45301;-62
2022/07/16 01:57:19;;;;;;;;;7.00;5.50;;;;;23.45;26.39;101691.91;5039169;28;45531;-62
2022/07/16 01:59:45;;;;;;;;;6.75;4.50;;;;;23.41;26.39;101686.75;5039297;28;45354;-63
2022/07/16 02:02:12;;;;;;;;;3.50;3.50;;;;;23.41;26.66;101692.13;5041637;28;45332;-63
2022/07/16 02:04:39;;;;;;;;;5.00;4.00;;;;;23.41;26.61;101692.13;5043129;28;45182;-63
2022/07/16 02:07:05;;;;;;;;;6.25;5.00;;;;;23.38;26.72;101690.47;5042723;28;45486;-63
2022/07/16 02:09:30;;;;;;;;;6.00;5.00;;;;;23.37;26.75;101694.13;5042943;28;45179;-65
2022/07/16 02:11:56;;;;;;;;;5.75;5.75;;;;;23.35;26.75;101691.50;5062865;28;45325;-63
2022/07/16 02:14:21;;;;;;;;;5.50;5.00;;;;;23.33;26.88;101693.44;5063121;28;45736;-62
2022/07/16 02:16:47;;;;;;;;;4.00;4.00;;;;;23.32;27.17;101694.38;5062834;28;45312;-62
2022/07/16 02:19:12;;;;;;;;;4.00;4.00;;;;;23.30;27.08;101687.34;5062753;28;45431;-63
2022/07/16 02:21:38;;;;;;;;;4.00;4.00;;;;;23.28;26.99;101692.81;5056296;28;45391;-63
2022/07/16 02:24:03;;;;;;;;;3.00;3.00;;;;;23.23;27.33;101685.94;5042800;28;45703;-62
2022/07/16 02:26:28;;;;;;;;;4.00;4.00;;;;;23.23;27.03;101689.47;5042522;28;46473;-62
2022/07/16 02:28:54;;;;;;;;;5.75;5.00;;;;;23.19;27.26;101688.81;5042270;28;45388;-62
2022/07/16 02:31:20;;;;;;;;;4.50;4.50;;;;;23.17;27.56;101693.38;5024626;28;45290;-61
2022/07/16 02:33:45;;;;;;;;;6.00;5.00;;;;;23.13;27.02;101689.09;5042709;28;45305;-61
2022/07/16 02:36:11;;;;;;;;;4.50;4.00;;;;;23.11;27.23;101698.16;5042101;28;45611;-62
2022/07/16 02:38:37;;;;;;;;;6.00;4.00;;;;;23.08;27.16;101698.31;5042498;28;45433;-63
2022/07/16 02:41:02;;;;;;;;;7.00;3.00;;;;;23.04;27.31;101692.22;5042325;28;45171;-62
2022/07/16 02:43:28;;;;;;;;;8.00;3.75;;;;;23.01;27.30;101697.75;5024401;28;45449;-61
2022/07/16 02:45:53;;;;;;;;;5.00;4.00;;;;;22.99;27.43;101699.63;5042175;28;45282;-61
2022/07/16 02:48:18;;;;;;;;;7.00;5.75;;;;;22.97;27.37;101702.41;5042450;28;45334;-62
2022/07/16 02:50:44;;;;;;;;;4.00;3.00;;;;;22.93;27.62;101703.53;5042092;28;45353;-61
2022/07/16 02:53:09;;;;;;;;;5.00;5.00;;;;;22.89;27.52;101702.81;5042255;28;45276;-62
2022/07/16 02:55:35;;;;;;;;;4.25;4.00;;;;;22.88;27.86;101705.56;5042145;28;45218;-62
2022/07/16 02:58:00;;;;;;;;;3.75;3.75;;;;;22.86;27.89;101692.22;5041984;28;45420;-61
2022/07/16 03:00:28;;;;;;;;;5.00;5.00;;;;;22.84;27.56;101706.66;5041936;28;45546;-62
2022/07/16 03:02:53;;;;;;;;;3.25;3.25;;;;;22.82;27.56;101700.53;5042164;28;45274;-61
2022/07/16 03:05:19;;;;;;;;;3.75;3.75;;;;;22.79;27.81;101701.53;5041853;28;45457;-62
2022/07/16 03:07:44;;;;;;;;;6.00;4.00;;;;;22.77;27.63;101700.75;5041650;28;46544;-62
2022/07/16 03:10:11;;;;;;;;;5.00;5.00;;;;;22.74;28.11;101695.53;5029601;28;45362;-61
2022/07/16 03:12:37;;;;;;;;;5.00;5.00;;;;;22.71;27.62;101701.91;5060822;28;45257;-61
2022/07/16 03:15:03;;;;;;;;;5.00;5.00;;;;;22.69;27.82;101694.88;5061908;28;45167;-61
2022/07/16 03:17:30;;;;;;;;;4.00;4.00;;;;;22.64;28.12;101688.91;5043546;28;47694;-62
2022/07/16 03:19:55;;;;;;;;;4.00;4.00;;;;;22.64;28.02;101703.19;5061782;28;45292;-62
2022/07/16 03:22:20;;;;;;;;;6.00;5.00;;;;;22.56;28.25;101687.50;5048487;28;45463;-62
2022/07/16 03:24:46;;;;;;;;;5.00;4.00;;;;;22.57;28.41;101696.38;5041697;28;45439;-62
2022/07/16 03:27:12;;;;;;;;;4.00;4.00;;;;;22.55;28.15;101701.81;5041674;28;45426;-62
2022/07/16 03:29:37;;;;;;;;;6.00;5.00;;;;;22.54;28.25;101701.88;5026376;28;45421;-62
2022/07/16 03:32:03;;;;;;;;;4.50;4.50;;;;;22.51;27.97;101704.72;5048944;28;45340;-62
2022/07/16 03:34:28;;;;;;;;;6.00;4.25;;;;;22.48;28.27;101703.06;5041479;28;45450;-62
2022/07/16 03:36:54;;;;;;;;;6.00;4.00;;;;;22.45;28.57;101697.88;5041144;28;46502;-61
2022/07/16 03:39:19;;;;;;;;;5.50;4.00;;;;;22.45;28.13;101705.03;5041428;28;45241;-61
2022/07/16 03:41:44;;;;;;;;;4.25;4.00;;;;;22.42;28.43;101698.00;5023624;28;45318;-61
2022/07/16 03:44:12;;;;;;;;;4.25;4.25;;;;;22.39;28.58;101707.06;5041234;28;45499;-61
2022/07/16 03:46:37;;;;;;;;;7.25;5.50;;;;;22.34;28.76;101705.50;5023348;28;46269;-61
2022/07/16 03:49:03;;;;;;;;;3.25;3.25;;;;;22.34;28.73;101711.75;5041129;28;45329;-61
2022/07/16 03:51:29;;;;;;;;;5.50;5.00;;;;;22.32;28.78;101710.09;5041306;28;45226;-61
2022/07/16 03:53:54;;;;;;;;;4.50;4.00;;;;;22.28;28.35;101709.34;5041109;28;45223;-61
2022/07/16 03:56:20;;;;;;;;;6.00;5.25;;;;;22.27;28.78;101712.13;5041246;28;46028;-60
2022/07/16 03:58:47;;;;;;;;;6.50;6.00;;;;;22.22;28.64;101709.66;5041028;28;45313;-62
2022/07/16 04:01:12;;;;;;;;;6.00;5.00;;;;;22.19;28.63;101710.66;5041144;28;45380;-62
2022/07/16 04:03:38;;;;;;;;;4.25;4.00;;;;;22.12;28.55;101708.38;5040813;28;45302;-62
2022/07/16 04:06:04;;;;;;;;;7.00;5.75;;;;;22.09;29.11;101714.72;5040773;28;45373;-61
2022/07/16 04:08:30;;;;;;;;;5.25;5.25;;;;;22.05;28.87;101713.16;5041076;28;45375;-63
2022/07/16 04:10:55;;;;;;;;;6.50;5.50;;;;;22.04;28.66;101716.75;5052963;28;45305;-62
2022/07/16 04:13:21;;;;;;;;;6.25;5.00;;;;;22.02;29.04;101719.47;5061021;28;45320;-62
2022/07/16 04:15:46;;;;;;;;;6.50;6.00;;;;;22.00;29.36;101717.81;5042542;28;47000;-62
2022/07/16 04:18:12;;;;;;;;;6.50;5.50;;;;;21.95;29.26;101722.53;5024605;28;45408;-62
2022/07/16 04:20:38;;;;;;;;;5.00;5.00;;;;;21.92;29.49;101723.53;5044312;28;45163;-62
2022/07/16 04:23:03;;;;;;;;;4.50;4.50;;;;;21.89;28.88;101729.03;5042248;28;45700;-61
2022/07/16 04:25:29;;;;;;;;;5.25;4.25;;;;;21.88;29.26;101735.31;5040304;28;45262;-62
2022/07/16 04:27:54;;;;;;;;;7.00;6.50;;;;;21.86;29.15;101732.72;5040649;28;45513;-62
2022/07/16 04:30:20;;;;;;;;;8.00;5.25;;;;;21.83;28.99;101723.97;5022935;28;45703;-62
2022/07/16 04:32:45;;;;;;;;;6.25;6.00;;;;;21.82;29.15;101725.75;5040367;28;45224;-62
2022/07/16 04:35:12;;;;;;;;;5.25;4.00;;;;;21.81;29.05;101732.06;5040723;28;45326;-62
2022/07/16 04:37:39;;;;;;;;;5.25;5.25;;;;;21.78;29.22;101736.69;5040336;28;45473;-62
2022/07/16 04:40:05;;;;;;;;;5.00;5.00;;;;;21.76;29.71;101736.78;5040738;28;45360;-62
2022/07/16 04:42:31;;;;;;;;;4.25;3.25;;;;;21.72;29.81;101736.03;5040162;28;45243;-62
2022/07/16 04:44:56;;;;;;;;;7.00;5.50;;;;;21.70;29.28;101742.41;5040226;28;45695;-62
2022/07/16 04:47:21;;;;;;;;;10.50;9.25;;;;;21.66;29.38;101738.09;5040194;28;45348;-62
2022/07/16 04:49:47;;;;;;;;;11.25;11.25;;;;;21.65;29.56;101742.59;5040609;28;45304;-62
2022/07/16 04:52:12;;;;;;;;;13.00;12.00;;;;;21.64;29.68;101746.22;5039840;28;45499;-62
2022/07/16 04:54:38;;;;;;;;;15.50;13.00;;;;;21.62;29.73;101740.03;5040223;28;45288;-62
2022/07/16 04:57:03;;;;;;;;;13.25;13.25;;;;;21.60;30.17;101733.91;5039988;28;45178;-62
2022/07/16 04:59:29;;;;;;;;;68.75;54.00;;;;;21.57;29.63;101736.72;5040407;28;45826;-62
2022/07/16 05:02:56;;;;;;;;;34.25;27.50;;;;;21.57;29.87;101745.63;5039972;28;45207;-62
2022/07/16 05:04:43;;;;;;;;;18.00;15.50;;;;;21.56;30.16;101743.03;5039601;28;45253;-62
2022/07/16 05:07:08;;;;;;;;;11.25;10.25;;;;;21.53;30.02;101745.78;5021783;28;45384;-62
2022/07/16 05:09:34;;;;;;;;;8.50;7.00;;;;;21.50;29.82;101749.47;5040781;28;45451;-61
2022/07/16 05:11:59;;;;;;;;;8.25;7.00;;;;;21.49;30.36;101754.88;5060081;28;45309;-62
2022/07/16 05:14:24;;;;;;;;;6.00;6.00;;;;;21.44;29.90;101747.06;5059986;28;46475;-61
2022/07/16 05:16:50;;;;;;;;;5.25;5.25;;;;;21.45;30.14;101750.63;5041999;28;45293;-61
2022/07/16 05:19:15;;;;;;;;;5.00;5.00;;;;;21.42;30.51;101747.13;5060106;28;45449;-63
2022/07/16 05:21:40;;;;;;;;;7.75;6.50;;;;;21.41;30.56;101745.38;5053157;28;45570;-61
2022/07/16 05:24:06;;;;;;;;;6.75;6.75;;;;;21.41;30.47;101742.72;5039749;28;45247;-61
2022/07/16 05:26:31;;;;;;;;;6.75;5.00;;;;;21.39;30.21;101749.06;5039843;28;45280;-61
2022/07/16 05:28:56;;;;;;;;;6.50;6.50;;;;;21.38;30.75;101742.88;5039936;28;45228;-61
2022/07/16 05:31:21;;;;;;;;;7.25;7.00;;;;;21.36;30.93;101742.06;5039576;28;45169;-60
2022/07/16 05:33:47;;;;;;;;;6.00;6.00;;;;;21.34;30.79;101737.72;5039689;28;45245;-61
2022/07/16 05:36:12;;;;;;;;;9.00;8.25;;;;;21.32;30.92;101734.22;5038426;28;45247;-60
2022/07/16 05:38:37;;;;;;;;;6.25;5.00;;;;;21.33;30.69;101741.31;5039625;28;46019;-61
2022/07/16 05:41:03;;;;;;;;;5.00;5.00;;;;;21.33;30.62;101739.50;5039604;28;45212;-62
2022/07/16 05:43:28;;;;;;;;;5.75;4.25;;;;;21.35;30.85;101744.81;5039494;28;45413;-63
2022/07/16 05:45:54;;;;;;;;;7.00;5.75;;;;;21.35;30.83;101742.97;5039375;28;45312;-63
2022/07/16 05:48:19;;;;;;;;;27.50;23.75;;;;;21.36;30.94;101752.75;5042863;28;45306;-63
2022/07/16 05:50:44;;;;;;;;;6.50;6.50;;;;;21.36;31.14;101743.88;5040131;28;50499;-62
2022/07/16 05:53:10;;;;;;;;;4.00;4.00;;;;;21.41;31.20;101750.75;5039419;28;45400;-63
2022/07/16 05:55:35;;;;;;;;;6.75;6.00;;;;;21.38;30.88;101740.19;5039338;28;47807;-63
2022/07/16 05:58:00;;;;;;;;;5.50;4.50;;;;;21.42;30.74;101764.97;5033272;28;45366;-63
2022/07/16 06:00:26;;;;;;;;;8.00;5.25;;;;;21.42;31.36;101762.28;5040888;28;45510;-63
2022/07/16 06:02:52;;;;;;;;;7.75;6.00;;;;;21.44;31.24;101768.44;5039253;28;46171;-63
2022/07/16 06:05:17;;;;;;;;;6.00;6.00;;;;;21.45;31.39;101772.00;5021234;28;45586;-63
2022/07/16 06:07:42;;;;;;;;;5.75;5.25;;;;;21.47;31.38;101773.69;5039414;28;45304;-63
2022/07/16 06:10:09;;;;;;;;;7.50;5.00;;;;;21.50;30.91;101773.53;5044438;28;45581;-63
2022/07/16 06:12:34;;;;;;;;;4.50;4.00;;;;;21.46;30.89;101768.38;5059209;28;47322;-63
2022/07/16 06:14:59;;;;;;;;;6.50;5.50;;;;;21.55;31.14;101776.00;5059140;28;45245;-63
2022/07/16 06:17:25;;;;;;;;;6.50;6.25;;;;;21.58;31.35;101787.47;5058871;28;45332;-63
2022/07/16 06:19:51;;;;;;;;;8.00;6.75;;;;;21.61;30.80;101780.22;5059099;28;45549;-63
2022/07/16 06:22:16;;;;;;;;;5.50;5.50;;;;;21.64;30.76;101791.66;5046881;28;46042;-63
2022/07/16 06:24:41;;;;;;;;;6.75;6.00;;;;;21.66;31.17;101789.81;5038966;28;45288;-63
2022/07/16 06:27:06;;;;;;;;;7.50;6.00;;;;;21.71;31.32;101793.16;5039190;28;45222;-63
2022/07/16 06:29:32;;;;;;;;;8.75;7.75;;;;;21.73;30.92;101796.59;5038817;28;45404;-63
2022/07/16 06:31:57;;;;;;;;;7.75;6.00;;;;;21.77;31.30;101793.81;5038742;28;46202;-64
2022/07/16 06:34:22;;;;;;;;;8.50;7.00;;;;;21.79;31.34;101792.78;5039056;28;45448;-74
2022/07/16 06:36:48;;;;;;;;;8.25;7.00;;;;;21.83;31.05;101798.88;5038792;28;45416;-64
2022/07/16 06:39:13;;;;;;;;;6.50;5.50;;;;;21.86;31.40;101799.63;5038925;28;45237;-63
2022/07/16 06:41:39;;;;;;;;;11.25;7.25;;;;;21.87;30.78;101801.34;5038757;28;46868;-63
2022/07/16 06:44:09;;;;;;;;;9.00;8.00;;;;;21.94;31.20;101809.09;5038470;28;45353;-63
2022/07/16 06:46:35;;;;;;;;;6.00;6.00;;;;;21.96;31.37;101809.88;5021422;28;45365;-60
2022/07/16 06:49:00;;;;;;;;;8.75;7.00;;;;;22.01;31.42;101824.81;5042189;28;45351;-64
2022/07/16 06:51:26;;;;;;;;;6.00;5.00;;;;;22.04;31.22;101821.97;5023975;28;45463;-64
2022/07/16 06:53:52;;;;;;;;;8.25;7.00;;;;;22.08;30.82;101823.56;5024180;28;45286;-64
2022/07/16 06:56:17;;;;;;;;;9.50;8.75;;;;;22.11;31.24;101821.72;5042475;28;45238;-64
2022/07/16 06:58:42;;;;;;;;;8.00;6.00;;;;;22.16;31.38;101819.69;5042022;28;45349;-64
2022/07/16 07:01:08;;;;;;;;;6.50;6.25;;;;;22.19;31.21;101820.41;5041926;28;45226;-64
2022/07/16 07:03:34;;;;;;;;;7.75;6.75;;;;;22.23;31.32;101826.50;5041697;28;45280;-63
2022/07/16 07:05:59;;;;;;;;;9.25;7.25;;;;;22.25;31.39;101830.00;5041869;28;45477;-62
2022/07/16 07:08:24;;;;;;;;;6.00;6.00;;;;;22.29;31.41;101831.56;5041684;28;45508;-62
2022/07/16 07:10:50;;;;;;;;;9.50;7.50;;;;;22.34;30.96;101845.63;5034838;28;46883;-63
2022/07/16 07:13:15;;;;;;;;;8.50;6.00;;;;;22.38;30.97;101843.69;5061950;28;45423;-63
2022/07/16 07:15:42;;;;;;;;;8.00;7.25;;;;;22.42;31.35;101839.94;5043957;28;45250;-63
2022/07/16 07:18:08;;;;;;;;;8.50;8.50;;;;;22.46;31.02;101846.00;5026201;28;45330;-63
2022/07/16 07:20:33;;;;;;;;;5.75;5.75;;;;;22.50;31.39;101842.25;5052553;28;45398;-60
2022/07/16 07:22:59;;;;;;;;;8.25;8.25;;;;;22.53;31.05;101844.78;5025824;28;45413;-62
2022/07/16 07:25:24;;;;;;;;;7.50;6.50;;;;;22.56;31.03;101836.59;5041684;28;45403;-62
2022/07/16 07:27:49;;;;;;;;;8.75;5.25;;;;;22.61;31.57;101839.06;5041453;28;45355;-62
2022/07/16 07:30:15;;;;;;;;;7.50;4.50;;;;;22.63;31.15;101838.03;5041603;28;46285;-62
2022/07/16 07:32:40;;;;;;;;;6.50;6.00;;;;;22.67;31.44;101831.59;5041249;28;45274;-66
2022/07/16 07:35:06;;;;;;;;;7.00;6.00;;;;;22.74;31.09;101845.56;5041506;28;45322;-66
2022/07/16 07:37:31;;;;;;;;;4.75;3.75;;;;;22.77;31.44;101841.88;5041008;28;45245;-66
2022/07/16 07:39:57;;;;;;;;;7.75;6.50;;;;;22.83;31.45;101841.56;5041302;28;45424;-66
2022/07/16 07:42:22;;;;;;;;;6.00;5.50;;;;;22.87;31.50;101844.03;5041446;28;45234;-66
2022/07/16 07:44:47;;;;;;;;;4.50;4.50;;;;;22.89;31.57;101843.94;5041651;28;45479;-66
2022/07/16 07:47:13;;;;;;;;;5.75;5.75;;;;;22.97;31.49;101835.56;5041222;28;45423;-66
2022/07/16 07:49:38;;;;;;;;;8.50;7.25;;;;;22.99;31.71;101839.88;5041323;28;46200;-66
2022/07/16 07:52:03;;;;;;;;;6.00;5.25;;;;;23.02;31.55;101836.19;5040832;28;45252;-66
2022/07/16 07:54:29;;;;;;;;;5.25;5.25;;;;;23.04;31.27;101832.50;5041394;28;45251;-67
2022/07/16 07:56:54;;;;;;;;;6.00;6.00;;;;;23.11;31.48;101837.53;5041234;28;45187;-66
2022/07/16 07:59:19;;;;;;;;;7.00;5.75;;;;;23.14;31.38;101842.75;5040171;28;45266;-67
2022/07/16 08:01:44;;;;;;;;;6.00;6.00;;;;;23.19;31.43;101846.09;5023160;28;45871;-66
2022/07/16 08:04:10;;;;;;;;;5.00;5.00;;;;;23.22;31.34;101835.22;5041224;28;45246;-65
2022/07/16 08:06:36;;;;;;;;;4.00;4.00;;;;;23.26;31.33;101833.22;5040926;28;45424;-66
2022/07/16 08:09:02;;;;;;;;;5.75;5.25;;;;;23.30;30.85;101837.50;5041009;28;46399;-66
2022/07/16 08:11:27;;;;;;;;;6.25;5.00;;;;;23.36;31.38;101842.56;5057147;28;45344;-66
2022/07/16 08:13:53;;;;;;;;;5.25;5.25;;;;;23.40;31.19;101848.66;5061326;28;45316;-66
2022/07/16 08:16:18;;;;;;;;;5.00;5.00;;;;;23.45;31.17;101843.91;5043037;28;45335;-66
2022/07/16 08:18:44;;;;;;;;;5.50;5.00;;;;;23.48;31.16;101835.69;5060977;28;46221;-66
2022/07/16 08:21:09;;;;;;;;;7.50;5.75;;;;;23.52;31.18;101837.25;5057873;28;45413;-65
2022/07/16 08:26:18;;;;;;;;;6.75;6.00;;;;;23.59;30.82;101829.78;5040891;28;45372;-65
2022/07/16 08:28:44;;;;;;;;;5.25;5.25;;;;;23.66;30.96;101845.47;5040776;28;46329;-65
2022/07/16 08:31:10;;;;;;;;;3.25;3.25;;;;;23.72;31.17;101848.78;5040666;28;45364;-66
2022/07/16 08:33:35;;;;;;;;;5.75;4.00;;;;;23.76;31.12;101842.31;5040784;28;45258;-66
2022/07/16 08:36:01;;;;;;;;;6.25;5.50;;;;;23.79;30.95;101840.31;5040095;28;45480;-66
2022/07/16 08:38:27;;;;;;;;;4.75;4.75;;;;;23.76;30.79;101829.78;5040724;28;45955;-66
2022/07/16 08:40:55;;;;;;;;;5.75;5.25;;;;;23.90;30.81;101844.25;5040373;28;45425;-66
2022/07/16 08:43:21;;;;;;;;;5.50;5.00;;;;;23.92;30.87;101840.56;5040450;28;45314;-66
2022/07/16 08:45:46;;;;;;;;;4.50;4.50;;;;;23.99;30.76;101841.13;5040280;28;45388;-66
2022/07/16 08:48:12;;;;;;;;;6.00;5.50;;;;;24.06;30.57;101838.97;5022639;28;46985;-66
2022/07/16 08:50:38;;;;;;;;;3.50;3.50;;;;;24.10;30.55;101841.41;5040080;28;45441;-65
2022/07/16 08:53:06;;;;;;;;;6.50;5.50;;;;;24.17;30.80;101839.25;5040538;28;45319;-66
2022/07/16 08:55:33;;;;;;;;;5.00;5.00;;;;;24.21;30.52;101848.88;5022371;28;45254;-66
2022/07/16 08:57:59;;;;;;;;;5.00;4.00;;;;;24.25;30.56;101844.19;5040239;28;45470;-66
2022/07/16 09:00:25;;;;;;;;;7.25;5.00;;;;;24.31;30.73;101839.38;5020679;28;45418;-65
2022/07/16 09:02:50;;;;;;;;;5.00;5.00;;;;;24.39;30.25;101849.69;5036705;28;45581;-63
2022/07/16 09:05:16;;;;;;;;;5.00;5.00;;;;;24.45;30.57;101849.38;5027574;28;45471;-70
2022/07/16 09:07:41;;;;;;;;;3.00;3.00;;;;;24.51;30.45;101842.75;5046225;28;46332;-67
2022/07/16 09:10:08;;;;;;;;;6.75;5.50;;;;;24.57;30.26;101850.47;5050300;28;45390;-67
2022/07/16 09:12:42;;;;;;;;;5.00;5.00;;;;;24.62;30.67;101845.72;5040144;28;45369;-68
2022/07/16 09:15:32;;;;;;;;;5.50;5.00;;;;;24.71;30.30;101847.06;5051321;28;45458;-67
2022/07/16 09:18:16;;;;;;;;;3.50;2.50;;;;;24.78;30.61;101855.63;5047508;28;45359;-66
2022/07/16 09:21:01;;;;;;;;;5.50;5.00;;;;;24.86;30.07;101849.84;5041101;28;45363;-67
2022/07/16 09:23:34;;;;;;;;;5.25;5.25;;;;;24.92;30.03;101846.78;5043075;28;45357;-70
2022/07/16 09:26:10;;;;;;;;;7.00;5.00;;;;;24.99;30.31;101849.03;5037764;28;45599;-67
2022/07/16 09:28:50;;;;;;;;;3.75;3.75;;;;;25.06;29.85;101849.53;5046349;28;46543;-67
2022/07/16 09:31:40;;;;;;;;;6.00;6.00;;;;;25.10;30.16;101844.84;5045788;28;45296;-67
2022/07/16 09:34:14;;;;;;;;;6.75;6.75;;;;;25.20;29.73;101847.88;5046866;28;45325;-68
2022/07/16 09:37:14;;;;;;;;;6.25;5.75;;;;;25.25;29.56;101849.31;5039626;28;45528;-62
2022/07/16 09:39:45;;;;;;;;;5.50;5.50;;;;;25.35;30.02;101851.47;5043705;28;46536;-70
2022/07/16 09:42:11;;;;;;;;;5.00;4.00;;;;;25.43;29.81;101847.41;5037886;28;45384;-65
2022/07/16 09:44:42;;;;;;;;;5.75;4.75;;;;;25.50;29.51;101853.28;5052682;28;45288;-65
2022/07/16 09:47:12;;;;;;;;;4.25;4.25;;;;;25.58;29.92;101853.66;5052366;28;46565;-65
2022/07/16 09:49:40;;;;;;;;;6.00;6.00;;;;;25.66;29.72;101847.84;5039935;28;46397;-66
2022/07/16 09:52:08;;;;;;;;;8.00;7.50;;;;;25.77;29.86;101841.78;5052065;28;45428;-67
2022/07/16 09:54:37;;;;;;;;;5.00;5.00;;;;;25.84;29.47;101843.16;5047939;28;45395;-67
2022/07/16 09:57:17;;;;;;;;;5.25;5.00;;;;;25.92;29.35;101857.03;5045344;28;45428;-70
2022/07/16 09:59:44;;;;;;;;;6.00;6.00;;;;;26.01;29.34;101852.00;5021200;28;47812;-71
2022/07/16 10:02:09;;;;;;;;;4.50;4.00;;;;;26.09;29.13;101855.13;5052204;28;45262;-74
2022/07/16 10:04:35;;;;;;;;;5.50;5.50;;;;;26.17;29.07;101851.94;5053907;28;45507;-73
2022/07/16 10:07:01;;;;;;;;;5.00;5.00;;;;;26.25;29.15;101855.00;5059206;28;45442;-68
2022/07/16 10:09:27;;;;;;;;;5.25;4.00;;;;;26.32;29.08;101856.34;5051263;28;45298;-68
2022/07/16 10:11:55;;;;;;;;;5.25;4.25;;;;;26.41;28.58;101865.69;5049103;28;45421;-69
2022/07/16 10:14:22;;;;;;;;;5.00;5.00;;;;;26.50;28.67;101865.09;5059197;28;45328;-69
2022/07/16 10:16:47;;;;;;;;;6.50;6.50;;;;;26.56;28.66;101848.53;5059227;28;45487;-68
2022/07/16 10:19:14;;;;;;;;;7.25;6.50;;;;;26.68;28.87;101859.47;5055848;28;46029;-75
2022/07/16 10:21:40;;;;;;;;;8.00;8.00;;;;;26.79;29.04;101864.22;5050729;28;45330;-75
2022/07/16 10:24:15;;;;;;;;;5.00;5.00;;;;;26.88;28.88;101867.16;5062364;28;45609;-72
2022/07/16 10:26:40;;;;;;;;;3.25;3.25;;;;;26.99;28.20;101865.59;5071846;28;45417;-75
2022/07/16 10:29:06;;;;;;;;;5.75;3.75;;;;;27.09;28.78;101861.31;5062459;28;45452;-75
2022/07/16 10:32:26;;;;;;;;;7.00;6.00;;;;;27.21;28.38;101855.09;5062578;28;45330;-75
2022/07/16 10:34:38;;;;;;;;;6.75;6.75;;;;;27.37;28.75;101848.66;5052767;28;45393;-74
2022/07/16 10:37:23;;;;;;;;;7.00;6.00;;;;;27.51;28.10;101845.91;5058093;28;45305;-63
2022/07/16 10:40:06;;;;;;;;;5.50;4.25;;;;;27.68;28.09;101844.72;5055310;28;45148;-68
2022/07/16 10:42:33;;;;;;;;;9.75;9.25;;;;;27.84;28.24;101849.06;5061531;28;45407;-68
2022/07/16 10:44:59;;;;;;;;;6.00;6.00;;;;;28.00;28.03;101844.31;5043993;28;45499;-68
2022/07/16 10:47:44;;;;;;;;;5.00;5.00;;;;;28.24;28.43;101853.50;5061920;28;45245;-68
2022/07/16 10:50:32;;;;;;;;;4.00;4.00;;;;;28.54;28.50;101850.38;5062026;28;46275;-68
2022/07/16 10:52:58;;;;;;;;;6.00;6.00;;;;;28.99;28.99;101860.66;5062807;28;45337;-66
2022/07/16 10:55:34;;;;;;;;;4.00;3.75;;;;;29.55;28.72;101853.75;5072681;28;45366;-63
2022/07/16 10:58:00;;;;;;;;;5.25;5.00;;;;;30.18;29.21;101850.69;5061520;28;45497;-63
2022/07/16 11:00:26;;;;;;;;;5.00;5.00;;;;;30.87;29.31;101846.84;5067594;28;45333;-64
2022/07/16 11:02:58;;;;;;;;;4.75;4.75;;;;;31.66;29.11;101848.38;5044110;28;46705;-64
2022/07/16 11:05:25;;;;;;;;;3.25;3.00;;;;;32.43;29.15;101855.22;5043272;28;45264;-62
2022/07/16 11:07:51;;;;;;;;;4.50;4.00;;;;;33.22;28.32;101859.78;5061546;28;45372;-64
2022/07/16 11:10:22;;;;;;;;;4.75;4.75;;;;;34.02;28.68;101854.03;5060786;28;45462;-64
2022/07/16 11:12:47;;;;;;;;;4.50;3.25;;;;;34.81;28.19;101864.56;5057034;28;45419;-64
2022/07/16 11:15:12;;;;;;;;;4.25;3.25;;;;;35.61;27.72;101867.34;5061912;28;45248;-64
2022/07/16 11:17:38;;;;;;;;;3.50;3.50;;;;;36.42;27.59;101853.47;5061362;28;45343;-64
2022/07/16 11:20:05;;;;;;;;;1.50;1.50;;;;;37.20;27.14;101852.22;5061707;28;46003;-64
2022/07/16 11:22:31;;;;;;;;;2.75;2.75;;;;;38.00;26.58;101861.56;5061137;28;45344;-61
2022/07/16 11:24:59;;;;;;;;;6.00;4.50;;;;;38.72;26.45;101851.44;5061855;28;45281;-63
2022/07/16 11:27:36;;;;;;;;;5.25;3.50;;;;;39.51;26.00;101864.03;5061398;28;45563;-64